sensor_id;sensor_type;location;lat;lon;timestamp;pressure;altitude;pressure_sealevel;temperature;humidity
56831;BME280;42713;42.676;23.352;2023-06-26T00:00:44;94583.34;;;20.02;83.00
56831;BME280;42713;42.676;23.352;2023-06-26T00:03:18;94584.09;;;19.94;83.44
56831;BME280;42713;42.676;23.352;2023-06-26T00:05:44;94579.75;;;19.98;83.27
56831;BME280;42713;42.676;23.352;2023-06-26T00:08:09;94582.56;;;20.02;83.25
56831;BME280;42713;42.676;23.352;2023-06-26T00:10:35;94583.16;;;19.99;83.28
56831;BME280;42713;42.676;23.352;2023-06-26T00:13:00;94578.69;;;20.08;83.21
56831;BME280;42713;42.676;23.352;2023-06-26T00:15:27;94579.50;;;20.17;82.75
56831;BME280;42713;42.676;23.352;2023-06-26T00:17:58;94583.56;;;20.15;82.40
56831;BME280;42713;42.676;23.352;2023-06-26T00:20:24;94580.09;;;20.05;82.89
56831;BME280;42713;42.676;23.352;2023-06-26T00:22:50;94583.16;;;19.99;83.38
56831;BME280;42713;42.676;23.352;2023-06-26T00:25:16;94579.59;;;20.03;83.26
56831;BME280;42713;42.676;23.352;2023-06-26T00:27:41;94588.66;;;20.02;83.43
56831;BME280;42713;42.676;23.352;2023-06-26T00:30:08;94576.16;;;20.03;83.14
56831;BME280;42713;42.676;23.352;2023-06-26T00:32:33;94571.44;;;20.00;83.25
56831;BME280;42713;42.676;23.352;2023-06-26T00:34:59;94578.88;;;19.89;83.76
56831;BME280;42713;42.676;23.352;2023-06-26T00:37:24;94573.56;;;19.89;84.02
56831;BME280;42713;42.676;23.352;2023-06-26T00:39:50;94579.44;;;20.00;83.64
56831;BME280;42713;42.676;23.352;2023-06-26T00:42:15;94574.53;;;19.93;83.19
56831;BME280;42713;42.676;23.352;2023-06-26T00:44:41;94571.63;;;19.81;84.27
56831;BME280;42713;42.676;23.352;2023-06-26T00:47:06;94571.63;;;19.81;84.30
56831;BME280;42713;42.676;23.352;2023-06-26T00:49:32;94570.50;;;19.73;84.68
56831;BME280;42713;42.676;23.352;2023-06-26T00:51:58;94569.22;;;19.70;84.76
56831;BME280;42713;42.676;23.352;2023-06-26T00:54:24;94570.31;;;19.69;84.91
56831;BME280;42713;42.676;23.352;2023-06-26T00:56:49;94553.84;;;19.58;85.64
56831;BME280;42713;42.676;23.352;2023-06-26T00:59:15;94554.81;;;19.63;85.57
56831;BME280;42713;42.676;23.352;2023-06-26T01:01:41;94555.00;;;19.66;85.37
56831;BME280;42713;42.676;23.352;2023-06-26T01:04:06;94553.06;;;19.58;85.44
56831;BME280;42713;42.676;23.352;2023-06-26T01:06:33;94549.56;;;19.49;86.06
56831;BME280;42713;42.676;23.352;2023-06-26T01:09:04;94556.06;;;19.42;85.99
56831;BME280;42713;42.676;23.352;2023-06-26T01:11:30;94560.13;;;19.40;86.44
56831;BME280;42713;42.676;23.352;2023-06-26T01:13:56;94550.75;;;19.42;86.36
56831;BME280;42713;42.676;23.352;2023-06-26T01:16:25;94540.81;;;19.48;86.31
56831;BME280;42713;42.676;23.352;2023-06-26T01:18:51;94544.84;;;19.46;85.93
56831;BME280;42713;42.676;23.352;2023-06-26T01:21:17;94545.63;;;19.46;86.08
56831;BME280;42713;42.676;23.352;2023-06-26T01:26:21;94535.47;;;19.39;86.85
56831;BME280;42713;42.676;23.352;2023-06-26T01:28:47;94537.84;;;19.50;86.11
56831;BME280;42713;42.676;23.352;2023-06-26T01:31:14;94533.44;;;19.45;86.14
56831;BME280;42713;42.676;23.352;2023-06-26T01:33:41;94538.63;;;19.50;86.01
56831;BME280;42713;42.676;23.352;2023-06-26T01:36:07;94523.72;;;19.40;85.95
56831;BME280;42713;42.676;23.352;2023-06-26T01:38:33;94532.66;;;19.44;85.79
56831;BME280;42713;42.676;23.352;2023-06-26T01:41:00;94517.50;;;19.45;85.93
56831;BME280;42713;42.676;23.352;2023-06-26T01:46:09;94522.19;;;19.39;85.92
56831;BME280;42713;42.676;23.352;2023-06-26T01:51:53;94520.28;;;19.40;85.83
56831;BME280;42713;42.676;23.352;2023-06-26T01:54:23;94520.88;;;19.37;85.29
56831;BME280;42713;42.676;23.352;2023-06-26T01:56:52;94515.56;;;19.37;85.50
56831;BME280;42713;42.676;23.352;2023-06-26T01:59:20;94518.41;;;19.40;85.15
56831;BME280;42713;42.676;23.352;2023-06-26T02:01:47;94518.06;;;19.33;85.36
56831;BME280;42713;42.676;23.352;2023-06-26T02:04:12;94512.56;;;19.29;85.57
56831;BME280;42713;42.676;23.352;2023-06-26T02:06:38;94501.84;;;19.35;85.11
56831;BME280;42713;42.676;23.352;2023-06-26T02:09:03;94516.50;;;19.32;85.30
56831;BME280;42713;42.676;23.352;2023-06-26T02:11:29;94513.97;;;19.27;85.38
56831;BME280;42713;42.676;23.352;2023-06-26T02:13:54;94527.59;;;19.34;84.76
56831;BME280;42713;42.676;23.352;2023-06-26T02:16:20;94523.38;;;19.33;84.70
56831;BME280;42713;42.676;23.352;2023-06-26T02:18:45;94523.50;;;19.28;84.95
56831;BME280;42713;42.676;23.352;2023-06-26T02:21:11;94521.09;;;19.18;85.20
56831;BME280;42713;42.676;23.352;2023-06-26T02:23:36;94524.88;;;19.25;85.17
56831;BME280;42713;42.676;23.352;2023-06-26T02:26:03;94540.94;;;19.20;84.86
56831;BME280;42713;42.676;23.352;2023-06-26T02:28:28;94527.97;;;19.19;85.13
56831;BME280;42713;42.676;23.352;2023-06-26T02:30:56;94525.59;;;19.17;85.63
56831;BME280;42713;42.676;23.352;2023-06-26T02:33:22;94525.78;;;19.21;85.16
56831;BME280;42713;42.676;23.352;2023-06-26T02:35:47;94526.09;;;19.19;85.15
56831;BME280;42713;42.676;23.352;2023-06-26T02:38:13;94527.78;;;19.15;85.65
56831;BME280;42713;42.676;23.352;2023-06-26T02:40:38;94529.06;;;19.18;85.49
56831;BME280;42713;42.676;23.352;2023-06-26T02:43:04;94532.66;;;19.22;85.63
56831;BME280;42713;42.676;23.352;2023-06-26T02:45:29;94529.06;;;19.18;85.53
56831;BME280;42713;42.676;23.352;2023-06-26T02:47:55;94523.66;;;19.09;85.89
56831;BME280;42713;42.676;23.352;2023-06-26T02:50:20;94527.72;;;19.06;86.36
56831;BME280;42713;42.676;23.352;2023-06-26T02:52:46;94535.19;;;19.04;86.31
56831;BME280;42713;42.676;23.352;2023-06-26T02:55:15;94535.00;;;19.01;86.48
56831;BME280;42713;42.676;23.352;2023-06-26T02:57:41;94534.22;;;19.00;86.62
56831;BME280;42713;42.676;23.352;2023-06-26T03:00:07;94533.78;;;19.07;86.43
56831;BME280;42713;42.676;23.352;2023-06-26T03:02:33;94530.19;;;19.03;86.02
56831;BME280;42713;42.676;23.352;2023-06-26T03:04:58;94541.28;;;19.05;85.85
56831;BME280;42713;42.676;23.352;2023-06-26T03:07:24;94527.34;;;18.99;85.91
56831;BME280;42713;42.676;23.352;2023-06-26T03:09:50;94530.91;;;18.94;86.23
56831;BME280;42713;42.676;23.352;2023-06-26T03:12:16;94528.13;;;18.86;86.70
56831;BME280;42713;42.676;23.352;2023-06-26T03:14:41;94537.38;;;18.88;86.88
56831;BME280;42713;42.676;23.352;2023-06-26T03:17:06;94529.13;;;18.90;86.64
56831;BME280;42713;42.676;23.352;2023-06-26T03:19:32;94531.19;;;18.93;86.42
56831;BME280;42713;42.676;23.352;2023-06-26T03:21:58;94536.22;;;18.94;86.16
56831;BME280;42713;42.676;23.352;2023-06-26T03:24:23;94528.72;;;18.96;85.81
56831;BME280;42713;42.676;23.352;2023-06-26T03:26:49;94531.75;;;19.04;85.58
56831;BME280;42713;42.676;23.352;2023-06-26T03:29:14;94532.44;;;19.09;85.04
56831;BME280;42713;42.676;23.352;2023-06-26T03:31:40;94538.81;;;19.08;84.92
56831;BME280;42713;42.676;23.352;2023-06-26T03:34:05;94533.63;;;19.03;85.04
56831;BME280;42713;42.676;23.352;2023-06-26T03:36:30;94540.19;;;19.06;85.20
56831;BME280;42713;42.676;23.352;2023-06-26T03:38:56;94535.38;;;19.08;84.88
56831;BME280;42713;42.676;23.352;2023-06-26T03:41:23;94541.66;;;19.12;84.65
56831;BME280;42713;42.676;23.352;2023-06-26T03:43:48;94540.31;;;19.01;85.19
56831;BME280;42713;42.676;23.352;2023-06-26T03:46:14;94540.44;;;18.95;85.61
56831;BME280;42713;42.676;23.352;2023-06-26T03:48:39;94531.09;;;18.98;85.21
56831;BME280;42713;42.676;23.352;2023-06-26T03:51:05;94536.44;;;19.07;85.14
56831;BME280;42713;42.676;23.352;2023-06-26T03:53:32;94542.25;;;19.09;84.93
56831;BME280;42713;42.676;23.352;2023-06-26T03:55:58;94544.13;;;19.08;84.77
56831;BME280;42713;42.676;23.352;2023-06-26T03:58:23;94539.28;;;19.10;84.67
56831;BME280;42713;42.676;23.352;2023-06-26T04:00:50;94536.34;;;19.12;84.61
56831;BME280;42713;42.676;23.352;2023-06-26T04:03:16;94531.13;;;19.07;84.34
56831;BME280;42713;42.676;23.352;2023-06-26T04:05:41;94527.22;;;19.04;84.67
56831;BME280;42713;42.676;23.352;2023-06-26T04:08:07;94526.16;;;18.91;85.55
56831;BME280;42713;42.676;23.352;2023-06-26T04:10:33;94525.59;;;18.94;85.84
56831;BME280;42713;42.676;23.352;2023-06-26T04:12:59;94536.88;;;19.00;85.55
56831;BME280;42713;42.676;23.352;2023-06-26T04:15:25;94530.28;;;18.97;85.51
56831;BME280;42713;42.676;23.352;2023-06-26T04:17:50;94531.81;;;19.12;84.95
56831;BME280;42713;42.676;23.352;2023-06-26T04:20:16;94539.50;;;19.14;84.38
56831;BME280;42713;42.676;23.352;2023-06-26T04:22:41;94541.53;;;19.17;83.43
56831;BME280;42713;42.676;23.352;2023-06-26T04:25:10;94543.06;;;19.09;84.28
56831;BME280;42713;42.676;23.352;2023-06-26T04:27:38;94547.78;;;18.98;84.58
56831;BME280;42713;42.676;23.352;2023-06-26T04:30:03;94545.44;;;18.97;84.79
56831;BME280;42713;42.676;23.352;2023-06-26T04:32:30;94543.16;;;19.04;84.96
56831;BME280;42713;42.676;23.352;2023-06-26T04:34:55;94552.75;;;19.14;84.16
56831;BME280;42713;42.676;23.352;2023-06-26T04:37:22;94548.22;;;19.15;83.98
56831;BME280;42713;42.676;23.352;2023-06-26T04:39:47;94550.56;;;19.16;84.45
56831;BME280;42713;42.676;23.352;2023-06-26T04:42:13;94553.44;;;19.20;84.59
56831;BME280;42713;42.676;23.352;2023-06-26T04:44:38;94550.72;;;19.11;84.22
56831;BME280;42713;42.676;23.352;2023-06-26T04:47:15;94555.78;;;19.21;84.31
56831;BME280;42713;42.676;23.352;2023-06-26T04:49:41;94558.31;;;19.26;84.02
56831;BME280;42713;42.676;23.352;2023-06-26T04:52:11;94550.84;;;19.28;84.00
56831;BME280;42713;42.676;23.352;2023-06-26T04:54:39;94542.38;;;19.26;83.99
56831;BME280;42713;42.676;23.352;2023-06-26T04:57:04;94541.78;;;19.29;83.44
56831;BME280;42713;42.676;23.352;2023-06-26T04:59:31;94559.09;;;19.27;83.75
56831;BME280;42713;42.676;23.352;2023-06-26T05:01:57;94544.75;;;19.28;84.44
56831;BME280;42713;42.676;23.352;2023-06-26T05:04:22;94549.63;;;19.35;83.95
56831;BME280;42713;42.676;23.352;2023-06-26T05:06:48;94554.88;;;19.49;83.48
56831;BME280;42713;42.676;23.352;2023-06-26T05:09:13;94566.47;;;19.53;83.50
56831;BME280;42713;42.676;23.352;2023-06-26T05:11:39;94556.16;;;19.51;83.67
56831;BME280;42713;42.676;23.352;2023-06-26T05:14:05;94539.97;;;19.39;83.39
56831;BME280;42713;42.676;23.352;2023-06-26T05:16:34;94556.75;;;19.48;83.33
56831;BME280;42713;42.676;23.352;2023-06-26T05:19:00;94567.84;;;19.50;83.39
56831;BME280;42713;42.676;23.352;2023-06-26T05:21:26;94572.16;;;19.37;83.24
56831;BME280;42713;42.676;23.352;2023-06-26T05:23:55;94566.03;;;19.37;83.34
56831;BME280;42713;42.676;23.352;2023-06-26T05:26:21;94566.16;;;19.32;83.11
56831;BME280;42713;42.676;23.352;2023-06-26T05:28:47;94573.53;;;19.35;83.75
56831;BME280;42713;42.676;23.352;2023-06-26T05:31:15;94565.75;;;19.38;83.75
56831;BME280;42713;42.676;23.352;2023-06-26T05:33:43;94560.19;;;19.49;83.79
56831;BME280;42713;42.676;23.352;2023-06-26T05:36:10;94568.44;;;19.70;83.77
56831;BME280;42713;42.676;23.352;2023-06-26T05:38:37;94572.53;;;19.76;82.18
56831;BME280;42713;42.676;23.352;2023-06-26T05:41:03;94583.47;;;19.74;81.31
56831;BME280;42713;42.676;23.352;2023-06-26T05:43:29;94573.34;;;19.77;81.22
56831;BME280;42713;42.676;23.352;2023-06-26T05:45:54;94568.19;;;19.80;81.22
56831;BME280;42713;42.676;23.352;2023-06-26T05:48:20;94582.25;;;19.81;80.89
56831;BME280;42713;42.676;23.352;2023-06-26T05:50:45;94571.78;;;19.84;80.94
56831;BME280;42713;42.676;23.352;2023-06-26T05:53:11;94567.97;;;19.90;80.54
56831;BME280;42713;42.676;23.352;2023-06-26T05:55:37;94562.22;;;19.97;80.16
56831;BME280;42713;42.676;23.352;2023-06-26T05:58:03;94578.94;;;19.98;79.29
56831;BME280;42713;42.676;23.352;2023-06-26T06:00:30;94572.47;;;19.90;79.29
56831;BME280;42713;42.676;23.352;2023-06-26T06:02:55;94588.16;;;19.92;79.89
56831;BME280;42713;42.676;23.352;2023-06-26T06:05:21;94572.91;;;19.83;80.55
56831;BME280;42713;42.676;23.352;2023-06-26T06:07:48;94588.19;;;19.78;80.38
56831;BME280;42713;42.676;23.352;2023-06-26T06:10:13;94583.81;;;19.82;79.81
56831;BME280;42713;42.676;23.352;2023-06-26T06:12:40;94577.44;;;19.83;80.43
56831;BME280;42713;42.676;23.352;2023-06-26T06:15:06;94581.00;;;19.78;79.81
56831;BME280;42713;42.676;23.352;2023-06-26T06:17:31;94583.97;;;19.77;79.66
56831;BME280;42713;42.676;23.352;2023-06-26T06:19:57;94588.84;;;19.83;80.16
56831;BME280;42713;42.676;23.352;2023-06-26T06:22:23;94573.88;;;19.87;79.67
56831;BME280;42713;42.676;23.352;2023-06-26T06:24:49;94583.59;;;19.92;80.05
56831;BME280;42713;42.676;23.352;2023-06-26T06:27:15;94574.13;;;20.00;79.33
56831;BME280;42713;42.676;23.352;2023-06-26T06:29:44;94569.78;;;20.13;79.29
56831;BME280;42713;42.676;23.352;2023-06-26T06:32:10;94572.94;;;20.24;78.46
56831;BME280;42713;42.676;23.352;2023-06-26T06:34:35;94569.69;;;20.27;77.79
56831;BME280;42713;42.676;23.352;2023-06-26T06:37:02;94578.91;;;20.29;77.83
56831;BME280;42713;42.676;23.352;2023-06-26T06:39:28;94563.66;;;20.44;78.57
56831;BME280;42713;42.676;23.352;2023-06-26T06:41:54;94573.06;;;20.59;78.50
56831;BME280;42713;42.676;23.352;2023-06-26T06:44:19;94562.75;;;20.57;76.17
56831;BME280;42713;42.676;23.352;2023-06-26T06:46:44;94563.53;;;20.58;76.80
56831;BME280;42713;42.676;23.352;2023-06-26T06:49:10;94574.03;;;20.72;76.58
56831;BME280;42713;42.676;23.352;2023-06-26T06:51:35;94577.22;;;20.74;74.59
56831;BME280;42713;42.676;23.352;2023-06-26T06:54:01;94558.38;;;20.61;74.58
56831;BME280;42713;42.676;23.352;2023-06-26T06:56:27;94568.84;;;20.58;75.13
56831;BME280;42713;42.676;23.352;2023-06-26T06:58:53;94558.03;;;20.63;74.75
56831;BME280;42713;42.676;23.352;2023-06-26T07:01:18;94547.88;;;20.65;74.99
56831;BME280;42713;42.676;23.352;2023-06-26T07:03:44;94554.16;;;20.69;73.18
56831;BME280;42713;42.676;23.352;2023-06-26T07:06:09;94557.75;;;20.73;73.60
56831;BME280;42713;42.676;23.352;2023-06-26T07:08:35;94561.88;;;20.79;74.51
56831;BME280;42713;42.676;23.352;2023-06-26T07:11:00;94549.53;;;20.92;74.29
56831;BME280;42713;42.676;23.352;2023-06-26T07:13:26;94559.41;;;21.09;72.77
56831;BME280;42713;42.676;23.352;2023-06-26T07:15:52;94550.00;;;21.12;71.80
56831;BME280;42713;42.676;23.352;2023-06-26T07:18:17;94553.13;;;21.05;71.85
56831;BME280;42713;42.676;23.352;2023-06-26T07:20:43;94546.38;;;21.08;70.65
56831;BME280;42713;42.676;23.352;2023-06-26T07:23:08;94562.69;;;21.06;70.44
56831;BME280;42713;42.676;23.352;2023-06-26T07:25:34;94551.84;;;20.94;69.93
56831;BME280;42713;42.676;23.352;2023-06-26T07:28:00;94550.63;;;21.00;70.55
56831;BME280;42713;42.676;23.352;2023-06-26T07:30:26;94551.41;;;21.01;70.18
56831;BME280;42713;42.676;23.352;2023-06-26T07:32:51;94555.31;;;21.12;71.45
56831;BME280;42713;42.676;23.352;2023-06-26T07:35:17;94550.31;;;21.28;70.20
56831;BME280;42713;42.676;23.352;2023-06-26T07:37:42;94558.13;;;21.33;68.51
56831;BME280;42713;42.676;23.352;2023-06-26T07:40:09;94555.47;;;21.33;70.56
56831;BME280;42713;42.676;23.352;2023-06-26T07:42:35;94556.56;;;21.41;69.30
56831;BME280;42713;42.676;23.352;2023-06-26T07:45:00;94549.19;;;21.46;68.53
56831;BME280;42713;42.676;23.352;2023-06-26T07:47:26;94555.94;;;21.44;68.31
56831;BME280;42713;42.676;23.352;2023-06-26T07:49:51;94546.84;;;21.36;67.99
56831;BME280;42713;42.676;23.352;2023-06-26T07:52:18;94557.50;;;21.36;68.14
56831;BME280;42713;42.676;23.352;2023-06-26T07:54:44;94555.94;;;21.35;68.44
56831;BME280;42713;42.676;23.352;2023-06-26T07:57:10;94551.53;;;21.48;66.80
56831;BME280;42713;42.676;23.352;2023-06-26T07:59:37;94556.72;;;21.53;65.50
56831;BME280;42713;42.676;23.352;2023-06-26T08:02:03;94551.72;;;21.60;65.66
56831;BME280;42713;42.676;23.352;2023-06-26T08:04:29;94540.72;;;21.62;64.69
56831;BME280;42713;42.676;23.352;2023-06-26T08:06:58;94552.13;;;21.80;65.81
56831;BME280;42713;42.676;23.352;2023-06-26T08:09:26;94552.75;;;21.86;62.53
56831;BME280;42713;42.676;23.352;2023-06-26T08:11:52;94550.72;;;21.83;63.55
56831;BME280;42713;42.676;23.352;2023-06-26T08:14:18;94542.03;;;21.95;64.46
56831;BME280;42713;42.676;23.352;2023-06-26T08:16:44;94540.38;;;22.20;63.82
56831;BME280;42713;42.676;23.352;2023-06-26T08:19:11;94545.88;;;22.23;64.41
56831;BME280;42713;42.676;23.352;2023-06-26T08:21:37;94552.31;;;22.22;63.44
56831;BME280;42713;42.676;23.352;2023-06-26T08:24:02;94547.88;;;22.27;63.78
56831;BME280;42713;42.676;23.352;2023-06-26T08:26:28;94547.16;;;22.17;62.44
56831;BME280;42713;42.676;23.352;2023-06-26T08:28:56;94553.63;;;22.07;63.64
56831;BME280;42713;42.676;23.352;2023-06-26T08:31:21;94547.34;;;22.12;62.83
56831;BME280;42713;42.676;23.352;2023-06-26T08:33:47;94536.81;;;22.16;62.81
56831;BME280;42713;42.676;23.352;2023-06-26T08:36:12;94547.78;;;22.14;63.30
56831;BME280;42713;42.676;23.352;2023-06-26T08:38:38;94542.28;;;22.19;63.31
56831;BME280;42713;42.676;23.352;2023-06-26T08:41:07;94549.13;;;22.29;64.45
56831;BME280;42713;42.676;23.352;2023-06-26T08:43:33;94545.19;;;22.35;64.76
56831;BME280;42713;42.676;23.352;2023-06-26T08:45:59;94550.38;;;22.41;64.23
56831;BME280;42713;42.676;23.352;2023-06-26T08:48:25;94544.84;;;22.46;62.79
56831;BME280;42713;42.676;23.352;2023-06-26T08:50:53;94551.84;;;22.59;61.16
56831;BME280;42713;42.676;23.352;2023-06-26T08:53:52;94542.56;;;22.65;62.41
56831;BME280;42713;42.676;23.352;2023-06-26T08:56:22;94544.88;;;22.67;60.80
56831;BME280;42713;42.676;23.352;2023-06-26T08:58:48;94545.47;;;22.73;60.10
56831;BME280;42713;42.676;23.352;2023-06-26T09:01:14;94543.78;;;22.68;60.55
56831;BME280;42713;42.676;23.352;2023-06-26T09:03:40;94541.97;;;22.60;60.75
56831;BME280;42713;42.676;23.352;2023-06-26T09:06:07;94539.09;;;22.65;59.66
56831;BME280;42713;42.676;23.352;2023-06-26T09:08:33;94538.78;;;22.66;59.50
56831;BME280;42713;42.676;23.352;2023-06-26T09:10:58;94551.03;;;22.67;59.00
56831;BME280;42713;42.676;23.352;2023-06-26T09:13:24;94539.69;;;22.70;60.02
56831;BME280;42713;42.676;23.352;2023-06-26T09:15:53;94551.22;;;22.83;61.36
56831;BME280;42713;42.676;23.352;2023-06-26T09:18:20;94539.31;;;22.81;60.47
56831;BME280;42713;42.676;23.352;2023-06-26T09:20:46;94546.16;;;22.91;60.79
56831;BME280;42713;42.676;23.352;2023-06-26T09:23:12;94548.75;;;22.99;59.46
56831;BME280;42713;42.676;23.352;2023-06-26T09:25:40;94549.81;;;23.07;60.51
56831;BME280;42713;42.676;23.352;2023-06-26T09:28:05;94536.91;;;23.09;59.17
56831;BME280;42713;42.676;23.352;2023-06-26T09:30:35;94539.59;;;23.09;59.38
56831;BME280;42713;42.676;23.352;2023-06-26T09:33:20;94538.34;;;23.07;58.49
56831;BME280;42713;42.676;23.352;2023-06-26T09:35:47;94532.84;;;23.03;58.34
56831;BME280;42713;42.676;23.352;2023-06-26T09:38:14;94546.28;;;22.94;58.04
56831;BME280;42713;42.676;23.352;2023-06-26T09:40:40;94538.47;;;22.89;58.38
56831;BME280;42713;42.676;23.352;2023-06-26T09:43:09;94534.22;;;22.88;58.55
56831;BME280;42713;42.676;23.352;2023-06-26T09:45:35;94535.06;;;22.80;57.47
56831;BME280;42713;42.676;23.352;2023-06-26T09:48:04;94544.06;;;22.75;57.69
56831;BME280;42713;42.676;23.352;2023-06-26T09:50:32;94532.91;;;22.73;57.08
56831;BME280;42713;42.676;23.352;2023-06-26T09:53:07;94533.00;;;22.85;57.21
56831;BME280;42713;42.676;23.352;2023-06-26T09:55:36;94538.78;;;22.88;56.86
56831;BME280;42713;42.676;23.352;2023-06-26T09:58:03;94535.88;;;22.80;57.05
56831;BME280;42713;42.676;23.352;2023-06-26T10:00:32;94542.03;;;22.72;56.82
56831;BME280;42713;42.676;23.352;2023-06-26T10:02:59;94542.81;;;22.73;57.36
56831;BME280;42713;42.676;23.352;2023-06-26T10:05:24;94549.38;;;22.75;56.89
56831;BME280;42713;42.676;23.352;2023-06-26T10:07:50;94538.13;;;22.69;57.06
56831;BME280;42713;42.676;23.352;2023-06-26T10:10:18;94535.13;;;22.71;57.11
56831;BME280;42713;42.676;23.352;2023-06-26T10:12:48;94533.44;;;22.66;56.57
56831;BME280;42713;42.676;23.352;2023-06-26T10:15:14;94534.22;;;22.67;55.66
56831;BME280;42713;42.676;23.352;2023-06-26T10:17:43;94533.09;;;22.68;56.08
56831;BME280;42713;42.676;23.352;2023-06-26T10:20:10;94536.38;;;22.74;55.84
56831;BME280;42713;42.676;23.352;2023-06-26T10:22:48;94536.50;;;22.77;56.80
56831;BME280;42713;42.676;23.352;2023-06-26T10:25:18;94541.78;;;22.86;56.89
56831;BME280;42713;42.676;23.352;2023-06-26T10:27:52;94540.88;;;22.82;56.37
56831;BME280;42713;42.676;23.352;2023-06-26T10:30:22;94545.16;;;22.74;55.63
56831;BME280;42713;42.676;23.352;2023-06-26T10:32:48;94530.41;;;22.77;55.99
56831;BME280;42713;42.676;23.352;2023-06-26T10:35:14;94532.78;;;22.69;55.27
56831;BME280;42713;42.676;23.352;2023-06-26T10:37:46;94535.06;;;22.59;54.20
56831;BME280;42713;42.676;23.352;2023-06-26T10:40:14;94530.09;;;22.69;55.74
56831;BME280;42713;42.676;23.352;2023-06-26T10:42:40;94534.81;;;22.73;53.47
56831;BME280;42713;42.676;23.352;2023-06-26T10:45:18;94533.16;;;22.59;52.42
56831;BME280;42713;42.676;23.352;2023-06-26T10:47:48;94528.16;;;22.58;53.08
56831;BME280;42713;42.676;23.352;2023-06-26T10:50:35;94536.75;;;22.63;53.14
56831;BME280;42713;42.676;23.352;2023-06-26T10:53:07;94536.72;;;22.72;53.09
56831;BME280;42713;42.676;23.352;2023-06-26T10:55:33;94527.91;;;22.72;53.92
56831;BME280;42713;42.676;23.352;2023-06-26T10:57:58;94522.50;;;22.80;54.45
56831;BME280;42713;42.676;23.352;2023-06-26T11:00:24;94517.16;;;23.01;55.76
56831;BME280;42713;42.676;23.352;2023-06-26T11:02:50;94508.63;;;23.08;56.08
56831;BME280;42713;42.676;23.352;2023-06-26T11:05:33;94518.66;;;23.11;55.53
56831;BME280;42713;42.676;23.352;2023-06-26T11:08:05;94516.13;;;23.15;55.12
56831;BME280;42713;42.676;23.352;2023-06-26T11:10:48;94512.75;;;23.27;54.15
56831;BME280;42713;42.676;23.352;2023-06-26T11:13:14;94512.16;;;23.21;53.34
56831;BME280;42713;42.676;23.352;2023-06-26T11:15:43;94516.19;;;23.27;54.04
56831;BME280;42713;42.676;23.352;2023-06-26T11:18:09;94512.78;;;23.39;54.13
56831;BME280;42713;42.676;23.352;2023-06-26T11:20:35;94505.44;;;23.36;54.08
56831;BME280;42713;42.676;23.352;2023-06-26T11:23:01;94512.97;;;23.34;53.63
56831;BME280;42713;42.676;23.352;2023-06-26T11:25:29;94510.41;;;23.59;53.70
56831;BME280;42713;42.676;23.352;2023-06-26T11:27:55;94501.06;;;23.77;54.15
56831;BME280;42713;42.676;23.352;2023-06-26T11:30:25;94507.31;;;23.82;54.22
56831;BME280;42713;42.676;23.352;2023-06-26T11:32:50;94517.47;;;23.88;53.80
56831;BME280;42713;42.676;23.352;2023-06-26T11:35:23;94506.38;;;24.11;52.25
56831;BME280;42713;42.676;23.352;2023-06-26T11:37:57;94502.34;;;24.17;51.14
56831;BME280;42713;42.676;23.352;2023-06-26T11:40:25;94513.50;;;23.95;49.97
56831;BME280;42713;42.676;23.352;2023-06-26T11:42:58;94505.78;;;23.81;51.51
56831;BME280;42713;42.676;23.352;2023-06-26T11:45:23;94515.34;;;23.82;51.92
56831;BME280;42713;42.676;23.352;2023-06-26T11:47:49;94502.84;;;23.73;50.56
56831;BME280;42713;42.676;23.352;2023-06-26T11:50:15;94500.50;;;23.72;50.03
56831;BME280;42713;42.676;23.352;2023-06-26T11:52:44;94501.97;;;23.69;51.19
56831;BME280;42713;42.676;23.352;2023-06-26T11:55:10;94506.75;;;23.76;51.48
56831;BME280;42713;42.676;23.352;2023-06-26T11:57:37;94499.97;;;23.78;51.49
56831;BME280;42713;42.676;23.352;2023-06-26T12:00:13;94499.66;;;23.92;51.80
56831;BME280;42713;42.676;23.352;2023-06-26T12:02:39;94494.56;;;24.12;51.43
56831;BME280;42713;42.676;23.352;2023-06-26T12:05:05;94487.41;;;24.41;52.61
56831;BME280;42713;42.676;23.352;2023-06-26T12:07:31;94490.41;;;24.64;51.24
56831;BME280;42713;42.676;23.352;2023-06-26T12:09:58;94480.56;;;24.81;49.97
56831;BME280;42713;42.676;23.352;2023-06-26T12:12:24;94491.50;;;24.88;48.21
56831;BME280;42713;42.676;23.352;2023-06-26T12:14:51;94491.63;;;24.79;48.17
56831;BME280;42713;42.676;23.352;2023-06-26T12:17:17;94483.69;;;24.83;48.35
56831;BME280;42713;42.676;23.352;2023-06-26T12:19:47;94496.31;;;24.82;48.53
56831;BME280;42713;42.676;23.352;2023-06-26T12:22:17;94494.88;;;24.73;48.64
56831;BME280;42713;42.676;23.352;2023-06-26T12:24:43;94494.19;;;24.76;48.02
56831;BME280;42713;42.676;23.352;2023-06-26T12:27:10;94490.72;;;24.75;47.76
56831;BME280;42713;42.676;23.352;2023-06-26T12:29:37;94497.63;;;24.89;48.36
56831;BME280;42713;42.676;23.352;2023-06-26T12:32:03;94484.28;;;25.05;47.14
56831;BME280;42713;42.676;23.352;2023-06-26T12:34:33;94482.16;;;25.10;47.83
56831;BME280;42713;42.676;23.352;2023-06-26T12:37:12;94480.97;;;25.24;47.77
56831;BME280;42713;42.676;23.352;2023-06-26T12:40:05;94489.09;;;25.56;47.84
56831;BME280;42713;42.676;23.352;2023-06-26T12:42:41;94478.84;;;25.74;46.47
56831;BME280;42713;42.676;23.352;2023-06-26T12:45:11;94500.72;;;25.60;46.70
56831;BME280;42713;42.676;23.352;2023-06-26T12:47:37;94487.38;;;25.35;46.84
56831;BME280;42713;42.676;23.352;2023-06-26T12:50:05;94475.41;;;25.16;47.40
56831;BME280;42713;42.676;23.352;2023-06-26T12:52:31;94484.28;;;25.05;47.76
56831;BME280;42713;42.676;23.352;2023-06-26T12:54:56;94484.31;;;24.92;48.56
56831;BME280;42713;42.676;23.352;2023-06-26T12:57:22;94487.38;;;24.78;48.86